Startpagina
METAR-TAF:

METAR-TAF

Vliegvelden :

Niamey, Niger

Luchthaven Diori Hamani

breedte: 13-29N, lengte: 002-10E, hoogte: 223 m

Actueel weer

Dit bericht is 1 uur en het 8 minuten geleden gemaakt, om 03:00 UTC
Wind 4 kt uit het noordwesten
Temperatuur 28°C
Vochtigheid 15%
Druk 1009 hPa
Zicht 10 km of meer
geen wolken onder 1500 m en geen cumulonimbus

METAR: DRRN 240300Z 31004KT CAVOK 28/M01 Q1009 NOSIG

Tijdstip: 05:08 (04:08 UTC)

Verwachting

Dit bericht is 5 uur en het 8 minuten geleden gemaakt, om 23:00 UTC
Verwachting geldig van 24 om 00 UTC tot 25 om 06 UTC
Wind 5 kt uit het noorden
Zicht: 4000 m
verspreid stof
Wijzigt naar
van 24 om 08 UTC tot 24 om 10 UTC
Zicht: 6000 m

TAF: DRRN 232300Z 2400/2506 35005KT 4000 DU NSC BECMG 2408/2410 6000 NSW

Waarnemingen en weersverwachtingen van meer dan 4000 vliegvelden (METAR en TAF).

De beschikbare stations zijn de gele en rode punten op de kaart.

Ga met uw muis naar het station om de naam te zien.

Klik dan om waarnemingen en weersverwachtingen te zien.

kaart wijzigen: klik op de groene knoppen met een zwart kruis om in te zoomen, op de groene knop met een streepje om uit te zoomen of op de groene pijlen voor aangrenzende kaarten.


METAR-TAF: